Time;durP1;ratioP1;P1;durP2;ratioP2;P2;SDS_P1;SDS_P2;PMS_P1;PMS_P2;Temp;Humidity;BMP_temperature;BMP_pressure;BME280_temperature;BME280_humidity;BME280_pressure;Samples;Min_cycle;Max_cycle;Signal;HPM_P1;HPM_P2
2023/01/26 00:02:22;;;;;;;66.17;25.33;;;-0.70;99.90;;;;;;5019496;28;20230;-48
2023/01/26 00:04:51;;;;;;;67.43;25.97;;;-0.70;99.90;;;;;;5019244;28;20212;-50
2023/01/26 00:07:17;;;;;;;64.20;25.37;;;-0.80;99.90;;;;;;5019216;28;20206;-47
2023/01/26 00:09:44;;;;;;;67.27;27.23;;;-0.80;99.90;;;;;;5006320;28;20240;-47
2023/01/26 00:12:11;;;;;;;63.97;25.83;;;-0.70;99.90;;;;;;5019136;28;20220;-44
2023/01/26 00:14:49;;;;;;;72.43;28.10;;;-0.70;99.90;;;;;;5016475;28;20205;-50
2023/01/26 00:17:24;;;;;;;64.43;25.83;;;-0.70;99.90;;;;;;5017626;28;20189;-44
2023/01/26 00:19:57;;;;;;;61.63;25.27;;;-0.60;99.90;;;;;;5018381;28;20193;-49
2023/01/26 00:22:26;;;;;;;72.17;26.87;;;-0.70;99.90;;;;;;5019329;28;20220;-45
2023/01/26 00:24:53;;;;;;;62.27;24.47;;;-0.60;99.90;;;;;;5023478;28;20205;-50
2023/01/26 00:27:20;;;;;;;59.93;24.13;;;-0.70;99.90;;;;;;5003761;28;20198;-48
2023/01/26 00:29:47;;;;;;;60.77;25.87;;;-0.60;99.90;;;;;;5017905;28;20305;-49
2023/01/26 00:32:14;;;;;;;68.50;24.50;;;-0.70;99.90;;;;;;5019347;28;20227;-42
2023/01/26 00:34:41;;;;;;;61.77;23.70;;;-0.70;99.90;;;;;;5018413;28;20644;-47
2023/01/26 00:37:12;;;;;;;66.33;24.10;;;-0.70;99.90;;;;;;5019610;28;20821;-45
2023/01/26 00:39:39;;;;;;;61.57;22.57;;;-0.70;99.90;;;;;;5021837;28;20560;-53
2023/01/26 00:42:12;;;;;;;56.03;23.57;;;-0.70;99.90;;;;;;5003945;28;20226;-45
2023/01/26 00:44:41;;;;;;;51.50;22.03;;;-0.70;99.90;;;;;;5017090;28;20285;-54
2023/01/26 00:47:09;;;;;;;50.60;21.30;;;-0.70;99.90;;;;;;5019696;28;20212;-45
2023/01/26 00:49:36;;;;;;;54.67;23.30;;;-0.70;99.90;;;;;;5016958;28;20219;-49
2023/01/26 00:52:04;;;;;;;63.10;23.40;;;-0.70;99.90;;;;;;5021931;28;20221;-47
2023/01/26 00:54:33;;;;;;;49.67;21.17;;;-0.70;99.90;;;;;;5020740;28;20202;-54
2023/01/26 00:57:01;;;;;;;52.27;21.27;;;-0.80;99.90;;;;;;5006870;28;20219;-44
2023/01/26 00:59:28;;;;;;;61.07;23.23;;;-0.70;99.90;;;;;;5018710;28;20813;-48
2023/01/26 01:01:56;;;;;;;49.93;21.13;;;-0.80;99.90;;;;;;5014704;28;20233;-53
2023/01/26 01:04:23;;;;;;;53.53;21.70;;;-0.80;99.90;;;;;;5018900;28;20929;-49
2023/01/26 01:06:50;;;;;;;52.03;22.67;;;-0.80;99.90;;;;;;5018878;28;20221;-48
2023/01/26 01:09:17;;;;;;;55.20;21.57;;;-0.80;99.90;;;;;;5023226;28;20204;-42
2023/01/26 01:11:45;;;;;;;53.53;21.27;;;-0.70;99.90;;;;;;5009310;28;20885;-50
2023/01/26 01:14:14;;;;;;;54.43;21.60;;;-0.70;99.90;;;;;;5022218;28;20206;-42
2023/01/26 01:16:41;;;;;;;50.40;21.40;;;-0.70;99.90;;;;;;5021044;28;20645;-49
2023/01/26 01:19:12;;;;;;;52.23;21.23;;;-0.70;99.90;;;;;;5023609;28;20726;-46
2023/01/26 01:21:39;;;;;;;52.77;22.47;;;-0.70;99.90;;;;;;5020967;28;20221;-44
2023/01/26 01:24:06;;;;;;;56.67;23.50;;;-0.70;99.90;;;;;;5023471;28;20664;-45
2023/01/26 01:26:33;;;;;;;61.07;23.17;;;-0.70;99.90;;;;;;5008920;28;20240;-51
2023/01/26 01:29:02;;;;;;;57.63;21.77;;;-0.70;99.90;;;;;;5025855;28;20586;-46
2023/01/26 01:31:29;;;;;;;52.13;22.80;;;-0.70;99.90;;;;;;5018162;28;20303;-53
2023/01/26 01:33:57;;;;;;;49.13;21.53;;;-0.70;99.90;;;;;;5024551;28;20552;-49
2023/01/26 01:36:24;;;;;;;61.37;23.90;;;-0.70;99.90;;;;;;5018116;28;20258;-53
2023/01/26 01:38:52;;;;;;;56.87;22.07;;;-0.70;99.90;;;;;;5025157;28;20586;-51
2023/01/26 01:41:21;;;;;;;49.97;20.07;;;-0.70;99.90;;;;;;5021159;28;20225;-57
2023/01/26 01:43:48;;;;;;;55.67;21.60;;;-0.70;99.90;;;;;;5008623;28;20210;-53
2023/01/26 01:46:25;;;;;;;50.23;21.27;;;-0.70;99.90;;;;;;5017287;28;20682;-46
2023/01/26 01:48:55;;;;;;;54.10;23.23;;;-0.70;99.90;;;;;;5023672;28;20204;-55
2023/01/26 01:51:30;;;;;;;56.60;22.23;;;-0.70;99.90;;;;;;5021896;28;20907;-50
2023/01/26 01:54:01;;;;;;;56.40;22.30;;;-0.70;99.90;;;;;;5020237;28;20548;-46
2023/01/26 01:56:29;;;;;;;50.30;21.57;;;-0.60;99.90;;;;;;5022926;28;20197;-45
2023/01/26 01:59:00;;;;;;;52.57;22.53;;;-0.70;99.90;;;;;;5008835;28;20248;-54
2023/01/26 02:01:28;;;;;;;51.23;21.90;;;-0.70;99.90;;;;;;5011043;28;20335;-53
2023/01/26 02:03:59;;;;;;;53.93;21.80;;;-0.70;99.90;;;;;;5020845;28;20663;-49
2023/01/26 02:06:30;;;;;;;45.67;20.87;;;-0.60;99.90;;;;;;5015458;28;20373;-50
2023/01/26 02:08:59;;;;;;;54.93;21.53;;;-0.70;99.90;;;;;;5019935;28;20201;-50
2023/01/26 02:11:29;;;;;;;50.23;21.27;;;-0.70;99.90;;;;;;5022049;28;20216;-50
2023/01/26 02:14:02;;;;;;;48.33;19.47;;;-0.60;99.90;;;;;;5007968;28;20612;-46
2023/01/26 02:16:31;;;;;;;50.20;20.13;;;-0.60;99.90;;;;;;5021764;28;20190;-49
2023/01/26 02:18:58;;;;;;;54.60;21.83;;;-0.60;99.90;;;;;;5018151;28;20210;-49
2023/01/26 02:21:25;;;;;;;49.17;20.27;;;-0.60;99.90;;;;;;5014558;28;20300;-47
2023/01/26 02:24:04;;;;;;;58.47;21.67;;;-0.50;99.90;;;;;;5019002;28;20215;-50
2023/01/26 02:26:35;;;;;;;47.57;20.40;;;-0.50;99.90;;;;;;5022927;28;20285;-48
2023/01/26 02:29:06;;;;;;;49.87;21.87;;;-0.60;99.90;;;;;;5007746;28;20222;-42
2023/01/26 02:31:37;;;;;;;52.83;21.10;;;-0.50;99.90;;;;;;5022087;28;20225;-55
2023/01/26 02:34:04;;;;;;;48.57;20.13;;;-0.50;99.90;;;;;;5018168;28;20292;-44
2023/01/26 02:36:32;;;;;;;44.87;19.70;;;-0.50;99.90;;;;;;5023331;28;20210;-52
2023/01/26 02:39:20;;;;;;;48.23;19.27;;;-0.50;99.90;;;;;;5018486;28;20212;-44
2023/01/26 02:44:37;;;;;;;41.43;19.60;;;-0.50;99.90;;;;;;5020040;28;20438;-51
2023/01/26 02:47:12;;;;;;;46.53;20.00;;;-0.60;99.90;;;;;;5022299;28;20552;-47
2023/01/26 02:49:49;;;;;;;47.07;18.90;;;-0.60;99.90;;;;;;5017411;28;20208;-49
2023/01/26 02:52:21;;;;;;;40.87;19.50;;;-0.60;99.90;;;;;;5012456;28;20364;-47
2023/01/26 02:57:41;;;;;;;46.57;19.77;;;-0.60;99.90;;;;;;5022453;28;20823;-48
2023/01/26 03:00:10;;;;;;;40.73;19.60;;;-0.60;99.90;;;;;;5007398;28;20205;-47
2023/01/26 03:02:37;;;;;;;49.17;20.33;;;-0.60;99.90;;;;;;5022881;28;20196;-53
2023/01/26 03:05:04;;;;;;;48.23;19.90;;;-0.50;99.90;;;;;;5021355;28;20226;-45
2023/01/26 03:07:31;;;;;;;49.03;19.80;;;-0.50;99.90;;;;;;5017291;28;20368;-48
2023/01/26 03:09:58;;;;;;;43.57;18.67;;;-0.50;99.90;;;;;;5017249;28;20233;-49
2023/01/26 03:12:25;;;;;;;47.20;18.87;;;-0.50;99.90;;;;;;5020525;28;20208;-52
2023/01/26 03:17:35;;;;;;;43.20;18.30;;;-0.40;99.90;;;;;;5015871;28;20465;-52
2023/01/26 03:28:21;;;;;;;45.43;18.53;;;-0.30;99.90;;;;;;5019300;28;20202;-49
2023/01/26 03:30:52;;;;;;;48.40;19.30;;;-0.30;99.90;;;;;;5000094;28;20310;-52
2023/01/26 03:33:19;;;;;;;42.70;19.07;;;-0.40;99.90;;;;;;5018306;28;20198;-49
2023/01/26 03:35:47;;;;;;;37.23;17.97;;;-0.40;99.90;;;;;;5017260;28;20541;-50
2023/01/26 03:38:14;;;;;;;50.43;19.73;;;-0.40;99.90;;;;;;5019778;28;20202;-42
2023/01/26 03:57:21;;;;;;;39.70;17.57;;;-0.40;99.90;;;;;;5014029;28;20206;-49
2023/01/26 03:59:48;;;;;;;42.17;18.23;;;-0.40;99.90;;;;;;5018827;28;20571;-48
2023/01/26 04:08:20;;;;;;;45.20;18.03;;;-0.40;99.90;;;;;;5007981;28;20515;-46
2023/01/26 04:10:49;;;;;;;40.80;16.30;;;-0.40;99.90;;;;;;5018462;28;20219;-47
2023/01/26 04:21:40;;;;;;;38.20;16.23;;;-0.40;99.90;;;;;;5013355;28;20236;-42
2023/01/26 04:24:13;;;;;;;37.27;16.93;;;-0.40;99.90;;;;;;5020342;28;20558;-50
2023/01/26 04:26:42;;;;;;;37.40;16.73;;;-0.40;99.90;;;;;;5018694;28;20205;-43
2023/01/26 04:29:14;;;;;;;36.90;16.90;;;-0.30;99.90;;;;;;5019483;28;20287;-42
2023/01/26 04:31:43;;;;;;;51.87;18.03;;;-0.30;99.90;;;;;;5013278;28;21037;-51
2023/01/26 04:34:14;;;;;;;36.43;16.03;;;-0.30;99.90;;;;;;5004222;28;20210;-51
2023/01/26 04:36:42;;;;;;;41.50;17.27;;;-0.30;99.90;;;;;;5018435;28;20196;-50
2023/01/26 04:39:10;;;;;;;35.07;15.60;;;-0.30;99.90;;;;;;5004950;28;20299;-48
2023/01/26 04:41:39;;;;;;;29.70;14.60;;;-0.30;99.90;;;;;;5023534;28;20578;-43
2023/01/26 04:44:10;;;;;;;34.10;14.53;;;-0.30;99.90;;;;;;5014065;28;20217;-47
2023/01/26 04:46:37;;;;;;;32.27;15.53;;;-0.30;99.90;;;;;;5025568;28;20571;-48
2023/01/26 04:49:04;;;;;;;32.07;14.77;;;-0.30;99.90;;;;;;5005075;28;20345;-44
2023/01/26 04:51:34;;;;;;;35.40;14.73;;;-0.30;99.90;;;;;;5025055;28;20217;-49
2023/01/26 04:54:01;;;;;;;32.47;15.47;;;-0.20;99.90;;;;;;5016667;28;20900;-48
2023/01/26 04:56:31;;;;;;;36.90;14.60;;;-0.20;99.90;;;;;;5004552;28;20215;-43
2023/01/26 04:59:02;;;;;;;31.20;13.47;;;-0.20;99.90;;;;;;5016747;28;20238;-50
2023/01/26 05:01:29;;;;;;;45.13;15.53;;;-0.20;99.90;;;;;;5006197;28;20264;-44
2023/01/26 05:03:59;;;;;;;30.97;13.60;;;-0.20;99.90;;;;;;5023431;28;20189;-48
2023/01/26 05:06:27;;;;;;;38.83;15.53;;;-0.20;99.90;;;;;;5002581;28;20773;-45
2023/01/26 05:08:57;;;;;;;36.27;13.93;;;-0.20;99.90;;;;;;5017759;28;20211;-51
2023/01/26 05:11:24;;;;;;;35.53;14.13;;;-0.20;99.90;;;;;;5024345;28;20714;-49
2023/01/26 05:14:26;;;;;;;33.27;14.97;;;-0.20;99.90;;;;;;4997895;28;20610;-46
2023/01/26 05:17:08;;;;;;;31.00;13.13;;;-0.20;99.90;;;;;;5011940;28;20207;-48
2023/01/26 05:19:54;;;;;;;33.17;14.63;;;-0.20;99.90;;;;;;5021060;28;20196;-50
2023/01/26 05:22:36;;;;;;;34.13;13.80;;;-0.10;99.90;;;;;;4999452;28;20220;-45
2023/01/26 05:25:29;;;;;;;32.87;15.10;;;-0.10;99.90;;;;;;5005369;28;20226;-49
2023/01/26 05:28:02;;;;;;;36.57;14.07;;;-0.10;99.90;;;;;;5021747;28;21948;-54
2023/01/26 05:30:30;;;;;;;36.03;14.73;;;-0.10;99.90;;;;;;5009833;28;20241;-50
2023/01/26 05:33:01;;;;;;;32.13;14.30;;;-0.10;99.90;;;;;;5015808;28;20210;-56
2023/01/26 05:35:28;;;;;;;32.27;14.73;;;-0.10;99.90;;;;;;5021038;28;20210;-50
2023/01/26 05:37:56;;;;;;;33.87;14.70;;;-0.10;99.90;;;;;;5001751;28;20225;-51
2023/01/26 05:40:23;;;;;;;34.57;15.73;;;-0.10;99.90;;;;;;5016754;28;20212;-43
2023/01/26 05:42:52;;;;;;;35.83;15.77;;;0.00;99.90;;;;;;5022846;28;20230;-49
2023/01/26 05:45:43;;;;;;;32.17;15.23;;;0.00;99.90;;;;;;5018454;28;20207;-52
2023/01/26 05:48:11;;;;;;;33.37;15.00;;;0.00;99.90;;;;;;5017978;28;20213;-48
2023/01/26 05:50:38;;;;;;;32.03;13.17;;;0.00;99.90;;;;;;5022753;28;20526;-53
2023/01/26 05:53:13;;;;;;;44.47;15.90;;;0.00;99.90;;;;;;5012744;28;20218;-51
2023/01/26 05:55:40;;;;;;;39.60;13.70;;;0.00;99.90;;;;;;5017404;28;20202;-47
2023/01/26 05:58:09;;;;;;;34.73;13.53;;;0.00;99.90;;;;;;5017031;28;20206;-53
2023/01/26 06:00:36;;;;;;;39.50;15.17;;;0.00;99.90;;;;;;5018805;28;20226;-48
2023/01/26 06:03:09;;;;;;;28.40;12.97;;;0.00;99.90;;;;;;5016764;28;20291;-52
2023/01/26 06:05:37;;;;;;;31.40;13.20;;;0.00;99.90;;;;;;5024927;28;20203;-47
2023/01/26 06:08:10;;;;;;;36.23;14.37;;;0.00;99.90;;;;;;5000842;28;20237;-48
2023/01/26 06:10:51;;;;;;;31.80;12.90;;;0.00;99.90;;;;;;5007427;28;20233;-52
2023/01/26 06:13:26;;;;;;;32.00;13.80;;;0.00;99.90;;;;;;5018462;28;20214;-51
2023/01/26 06:16:01;;;;;;;34.83;14.43;;;0.00;99.90;;;;;;5016347;28;20287;-51
2023/01/26 06:18:30;;;;;;;28.90;13.63;;;0.00;99.90;;;;;;5018181;28;20208;-55
2023/01/26 06:21:00;;;;;;;32.57;14.60;;;0.10;99.90;;;;;;5020340;28;20276;-56
2023/01/26 06:23:27;;;;;;;30.10;13.83;;;0.10;99.90;;;;;;5007946;28;20212;-51
2023/01/26 06:25:59;;;;;;;30.23;12.57;;;0.10;99.90;;;;;;5009008;28;20225;-50
2023/01/26 06:28:27;;;;;;;33.47;13.70;;;0.10;99.90;;;;;;5022621;28;20559;-53
2023/01/26 06:30:59;;;;;;;25.07;12.23;;;0.10;99.90;;;;;;5008282;28;20225;-55
2023/01/26 06:33:27;;;;;;;30.80;13.17;;;0.10;99.90;;;;;;5017557;28;20210;-55
2023/01/26 06:35:55;;;;;;;39.87;14.97;;;0.10;99.90;;;;;;5020011;28;20194;-51
2023/01/26 06:38:22;;;;;;;32.10;13.03;;;0.10;99.90;;;;;;5005913;28;20567;-56
2023/01/26 06:40:49;;;;;;;33.10;14.60;;;0.10;99.90;;;;;;5014798;28;20218;-48
2023/01/26 06:43:16;;;;;;;38.57;14.87;;;0.10;99.90;;;;;;5017143;28;20213;-53
2023/01/26 06:45:46;;;;;;;32.67;14.07;;;0.10;99.90;;;;;;5013706;28;20214;-46
2023/01/26 06:48:15;;;;;;;25.33;11.20;;;0.20;99.90;;;;;;5013365;28;20238;-52
2023/01/26 06:50:44;;;;;;;29.60;12.57;;;0.20;99.90;;;;;;5020859;28;20220;-45
2023/01/26 06:53:26;;;;;;;26.93;11.80;;;0.10;99.90;;;;;;5006055;28;20217;-49
2023/01/26 06:56:11;;;;;;;22.30;10.77;;;0.20;99.90;;;;;;5021335;28;20209;-48
2023/01/26 06:58:55;;;;;;;29.13;12.73;;;0.20;99.90;;;;;;5009246;28;20220;-52
2023/01/26 07:01:46;;;;;;;28.33;13.23;;;0.20;99.90;;;;;;5012840;28;20241;-48
2023/01/26 07:04:13;;;;;;;30.93;13.57;;;0.10;99.90;;;;;;5015097;28;20741;-51
2023/01/26 07:06:40;;;;;;;21.93;11.47;;;0.20;99.90;;;;;;5020254;28;20203;-46
2023/01/26 07:09:07;;;;;;;27.00;12.60;;;0.20;99.90;;;;;;5003283;28;20261;-48
2023/01/26 07:11:37;;;;;;;22.50;11.67;;;0.20;99.90;;;;;;5021154;28;20246;-48
2023/01/26 07:14:03;;;;;;;27.57;12.23;;;0.20;99.90;;;;;;5009195;28;20871;-48
2023/01/26 07:16:30;;;;;;;26.87;12.33;;;0.20;99.90;;;;;;5023671;28;20201;-49
2023/01/26 07:18:58;;;;;;;24.53;12.27;;;0.20;99.90;;;;;;5009318;28;20215;-48
2023/01/26 07:21:25;;;;;;;25.47;12.13;;;0.20;99.90;;;;;;5012914;28;20222;-49
2023/01/26 07:23:52;;;;;;;27.47;12.90;;;0.20;99.90;;;;;;5005970;28;20282;-48
2023/01/26 07:26:20;;;;;;;34.13;13.37;;;0.20;99.90;;;;;;5014705;28;20235;-49
2023/01/26 07:28:47;;;;;;;33.23;13.80;;;0.20;99.90;;;;;;4997329;28;20579;-43
2023/01/26 07:31:14;;;;;;;25.53;12.07;;;0.30;99.90;;;;;;5019602;28;20567;-53
2023/01/26 07:33:41;;;;;;;27.50;11.40;;;0.30;99.90;;;;;;5014358;28;20216;-45
2023/01/26 07:36:10;;;;;;;27.30;12.77;;;0.30;99.90;;;;;;5012507;28;20195;-54
2023/01/26 07:38:37;;;;;;;24.67;11.43;;;0.30;99.90;;;;;;5013291;28;20224;-44
2023/01/26 07:41:07;;;;;;;25.73;12.07;;;0.30;99.90;;;;;;5013326;28;20259;-51
2023/01/26 07:43:34;;;;;;;27.67;12.07;;;0.30;99.90;;;;;;5009608;28;20214;-45
2023/01/26 07:46:01;;;;;;;27.73;12.27;;;0.40;99.90;;;;;;5013397;28;20210;-51
2023/01/26 07:48:29;;;;;;;23.53;11.83;;;0.40;99.90;;;;;;5022741;28;20209;-52
2023/01/26 07:50:58;;;;;;;23.63;11.67;;;0.40;99.90;;;;;;5006831;28;20236;-48
2023/01/26 07:53:28;;;;;;;22.57;11.27;;;0.40;99.90;;;;;;5022339;28;20234;-42
2023/01/26 07:56:05;;;;;;;23.37;10.80;;;0.40;99.90;;;;;;5000968;28;20945;-54
2023/01/26 07:58:34;;;;;;;22.00;12.17;;;0.40;99.90;;;;;;5016671;28;20210;-47
2023/01/26 08:01:09;;;;;;;26.47;12.07;;;0.40;99.90;;;;;;5007661;28;20262;-51
2023/01/26 08:03:36;;;;;;;23.73;10.80;;;0.50;99.90;;;;;;5020929;28;20692;-47
2023/01/26 08:06:03;;;;;;;23.50;11.73;;;0.40;99.90;;;;;;5008906;28;20211;-53
2023/01/26 08:08:31;;;;;;;24.07;11.20;;;0.40;99.90;;;;;;5021126;28;20213;-49
2023/01/26 08:10:59;;;;;;;21.40;10.30;;;0.50;99.90;;;;;;5003461;28;20321;-47
2023/01/26 08:13:26;;;;;;;27.27;11.87;;;0.50;99.90;;;;;;5015369;28;20207;-55
2023/01/26 08:15:52;;;;;;;23.17;11.83;;;0.50;99.90;;;;;;5012591;28;20208;-45
2023/01/26 08:18:20;;;;;;;22.47;10.90;;;0.60;99.90;;;;;;5014415;28;20211;-52
2023/01/26 08:20:51;;;;;;;21.60;10.10;;;0.60;99.90;;;;;;5008709;28;20710;-45
2023/01/26 08:23:18;;;;;;;20.17;9.90;;;0.60;99.90;;;;;;5020208;28;20202;-54
2023/01/26 08:25:46;;;;;;;18.23;9.73;;;0.60;99.90;;;;;;5005942;28;20207;-44
2023/01/26 08:28:22;;;;;;;17.40;10.00;;;0.60;99.90;;;;;;5021331;28;20261;-48
2023/01/26 08:30:49;;;;;;;18.30;8.93;;;0.60;99.90;;;;;;5006256;28;20222;-44
2023/01/26 08:33:16;;;;;;;19.20;9.63;;;0.60;99.90;;;;;;5014735;28;20238;-54
2023/01/26 08:35:42;;;;;;;17.73;9.77;;;0.60;99.90;;;;;;5012613;28;20613;-45
2023/01/26 08:38:09;;;;;;;15.43;9.17;;;0.60;99.90;;;;;;5013658;28;20685;-49
2023/01/26 08:40:36;;;;;;;17.47;9.23;;;0.60;99.90;;;;;;5019467;28;20214;-44
2023/01/26 08:43:04;;;;;;;16.17;8.13;;;0.60;99.90;;;;;;5001411;28;20199;-52
2023/01/26 08:45:32;;;;;;;18.00;9.03;;;0.60;99.90;;;;;;5009993;28;20198;-44
2023/01/26 08:47:58;;;;;;;15.90;8.43;;;0.60;99.90;;;;;;5012924;28;20211;-54
2023/01/26 08:50:25;;;;;;;15.03;7.97;;;0.60;99.90;;;;;;5021428;28;20202;-48
2023/01/26 08:52:55;;;;;;;15.33;8.73;;;0.70;99.90;;;;;;5005654;28;20221;-46
2023/01/26 08:55:23;;;;;;;14.13;7.63;;;0.70;99.90;;;;;;5021974;28;20210;-50
2023/01/26 08:57:53;;;;;;;17.07;9.33;;;0.60;99.90;;;;;;5000559;28;20204;-47
2023/01/26 09:00:23;;;;;;;16.77;9.03;;;0.60;99.90;;;;;;5005105;28;20203;-45
2023/01/26 09:02:50;;;;;;;17.57;8.67;;;0.70;99.90;;;;;;5019004;28;20199;-50
2023/01/26 09:05:18;;;;;;;13.90;7.33;;;0.70;99.90;;;;;;5016842;28;20203;-43
2023/01/26 09:07:45;;;;;;;17.90;8.43;;;0.70;99.90;;;;;;5008701;28;20611;-48
2023/01/26 09:10:12;;;;;;;14.13;8.60;;;0.80;99.90;;;;;;5018150;28;20196;-43
2023/01/26 09:12:39;;;;;;;18.40;8.87;;;0.70;99.90;;;;;;5003446;28;20228;-48
2023/01/26 09:15:08;;;;;;;13.17;7.73;;;0.70;99.90;;;;;;5011432;28;20290;-45
2023/01/26 09:17:36;;;;;;;17.57;7.77;;;0.80;99.90;;;;;;5015119;28;20797;-46
2023/01/26 09:20:03;;;;;;;14.20;7.37;;;0.70;99.90;;;;;;5020080;28;20280;-44
2023/01/26 09:22:30;;;;;;;17.63;8.23;;;0.70;99.90;;;;;;5010701;28;20342;-48
2023/01/26 09:24:57;;;;;;;13.60;7.50;;;0.70;99.90;;;;;;5022385;28;20226;-51
2023/01/26 09:27:24;;;;;;;15.03;7.80;;;0.80;99.90;;;;;;5001945;28;20218;-50
2023/01/26 09:29:52;;;;;;;13.63;7.40;;;0.80;99.90;;;;;;5024137;28;20255;-47
2023/01/26 09:32:19;;;;;;;13.70;7.30;;;0.90;99.90;;;;;;5008928;28;20229;-44
2023/01/26 09:34:47;;;;;;;14.20;7.13;;;0.90;99.90;;;;;;5022020;28;20651;-48
2023/01/26 09:37:15;;;;;;;17.07;8.07;;;0.90;99.90;;;;;;5018531;28;20685;-42
2023/01/26 09:39:42;;;;;;;16.70;8.07;;;0.90;99.90;;;;;;5022971;28;20533;-50
2023/01/26 09:42:32;;;;;;;13.60;7.67;;;0.90;99.90;;;;;;5022798;28;20614;-43
2023/01/26 09:45:14;;;;;;;16.23;8.03;;;0.90;99.90;;;;;;5007313;28;20619;-49
2023/01/26 09:47:53;;;;;;;20.37;8.67;;;0.90;99.90;;;;;;5015086;28;20208;-51
2023/01/26 09:50:26;;;;;;;20.40;8.53;;;0.90;99.90;;;;;;5021707;28;20702;-52
2023/01/26 09:52:57;;;;;;;19.33;8.27;;;1.00;99.90;;;;;;5023505;28;20219;-50
2023/01/26 09:55:25;;;;;;;18.13;9.30;;;0.90;99.90;;;;;;5015002;28;20199;-48
2023/01/26 09:57:56;;;;;;;21.70;9.60;;;1.00;99.90;;;;;;5024919;28;20650;-47
2023/01/26 10:00:28;;;;;;;21.97;9.87;;;1.00;99.90;;;;;;4990720;28;20309;-47
2023/01/26 10:03:05;;;;;;;23.17;9.27;;;1.00;99.90;;;;;;5019569;28;20203;-52
2023/01/26 10:05:40;;;;;;;21.77;10.03;;;1.00;99.90;;;;;;5015875;28;20196;-52
2023/01/26 10:08:12;;;;;;;20.33;9.67;;;1.00;99.90;;;;;;5013724;28;21123;-46
2023/01/26 10:10:42;;;;;;;23.60;10.23;;;1.00;99.90;;;;;;5016999;28;21855;-49
2023/01/26 10:13:13;;;;;;;25.00;9.87;;;1.10;99.90;;;;;;5013788;28;20865;-43
2023/01/26 10:15:42;;;;;;;21.93;9.07;;;1.10;99.90;;;;;;4994659;28;20598;-48
2023/01/26 10:18:15;;;;;;;24.80;10.43;;;1.20;99.90;;;;;;5020067;28;20207;-47
2023/01/26 10:20:48;;;;;;;24.30;10.23;;;1.20;99.90;;;;;;5020567;28;20278;-54
2023/01/26 10:23:19;;;;;;;24.43;10.63;;;1.20;99.90;;;;;;5022019;28;20208;-46
2023/01/26 10:25:46;;;;;;;25.80;9.47;;;1.20;99.90;;;;;;5017470;28;20218;-53
2023/01/26 10:28:15;;;;;;;34.13;11.03;;;1.20;99.90;;;;;;5022123;28;20215;-45
2023/01/26 10:30:44;;;;;;;27.13;10.90;;;1.20;99.90;;;;;;5005598;28;20216;-53
2023/01/26 10:33:16;;;;;;;27.00;9.93;;;1.30;99.90;;;;;;5007239;28;20223;-45
2023/01/26 10:35:44;;;;;;;26.20;10.27;;;1.30;99.90;;;;;;5009504;28;20429;-55
2023/01/26 10:38:38;;;;;;;22.87;10.03;;;1.30;99.90;;;;;;5021603;28;20211;-46
2023/01/26 10:41:07;;;;;;;25.67;11.30;;;1.30;99.90;;;;;;5018152;28;20227;-53
2023/01/26 10:43:38;;;;;;;32.00;10.67;;;1.30;99.90;;;;;;5018649;28;20471;-51
2023/01/26 10:46:05;;;;;;;35.10;10.80;;;1.40;99.90;;;;;;5007376;28;20212;-50
2023/01/26 10:48:33;;;;;;;36.27;10.47;;;1.40;99.90;;;;;;5014765;28;20210;-50
2023/01/26 10:51:15;;;;;;;27.20;11.60;;;1.40;99.90;;;;;;5018006;28;20776;-48
2023/01/26 10:53:42;;;;;;;29.33;10.77;;;1.40;99.90;;;;;;5016779;28;20204;-52
2023/01/26 10:56:15;;;;;;;33.77;10.80;;;1.40;99.90;;;;;;5014235;28;20207;-44
2023/01/26 10:58:47;;;;;;;34.20;11.40;;;1.50;99.90;;;;;;5019058;28;20274;-53
2023/01/26 11:01:17;;;;;;;30.10;11.57;;;1.50;99.90;;;;;;5006003;28;20239;-50
2023/01/26 11:04:02;;;;;;;28.90;11.00;;;1.50;99.90;;;;;;5016294;28;20215;-53
2023/01/26 11:06:31;;;;;;;35.13;11.30;;;1.60;99.90;;;;;;5010861;28;20203;-52
2023/01/26 11:09:10;;;;;;;34.93;12.50;;;1.60;99.90;;;;;;5018263;28;20690;-54
2023/01/26 11:11:36;;;;;;;29.30;11.50;;;1.60;99.90;;;;;;5015363;28;22831;-53
2023/01/26 11:14:15;;;;;;;25.40;10.63;;;1.60;99.90;;;;;;5018509;28;20227;-50
2023/01/26 11:16:47;;;;;;;29.13;11.63;;;1.60;99.90;;;;;;5004265;28;20290;-55
2023/01/26 11:19:20;;;;;;;37.70;11.60;;;1.70;99.90;;;;;;5016661;28;20207;-47
2023/01/26 11:21:53;;;;;;;28.73;11.30;;;1.60;99.90;;;;;;5014792;28;20718;-52
2023/01/26 11:24:26;;;;;;;34.67;11.60;;;1.60;99.90;;;;;;5011119;28;20204;-45
2023/01/26 11:27:16;;;;;;;34.80;11.00;;;1.70;99.90;;;;;;5018398;28;20207;-52
2023/01/26 11:30:16;;;;;;;38.70;11.67;;;1.70;99.90;;;;;;5013180;28;20274;-50
2023/01/26 11:33:12;;;;;;;27.47;11.63;;;1.80;99.90;;;;;;5003962;28;20223;-49
2023/01/26 11:35:47;;;;;;;34.23;11.23;;;1.80;99.90;;;;;;5015365;28;20227;-49
2023/01/26 11:38:27;;;;;;;37.10;12.03;;;1.80;99.90;;;;;;5013013;28;20210;-46
2023/01/26 11:41:04;;;;;;;40.13;11.60;;;1.80;99.90;;;;;;5011267;28;20778;-44
2023/01/26 11:43:52;;;;;;;30.67;12.63;;;1.90;99.90;;;;;;5016245;28;20778;-50
2023/01/26 11:46:37;;;;;;;31.50;11.63;;;2.00;99.90;;;;;;5012563;28;20385;-52
2023/01/26 11:49:18;;;;;;;35.80;12.23;;;2.00;99.90;;;;;;4994198;28;20297;-44
2023/01/26 11:52:15;;;;;;;37.70;13.00;;;2.00;99.90;;;;;;5007458;28;20243;-47
2023/01/26 11:55:01;;;;;;;32.80;12.50;;;2.00;99.90;;;;;;5010600;28;20204;-45
2023/01/26 11:57:35;;;;;;;31.77;11.03;;;2.00;99.90;;;;;;5018670;28;20686;-52
2023/01/26 12:00:05;;;;;;;29.50;11.57;;;2.00;99.90;;;;;;5007296;28;20226;-49
2023/01/26 12:02:43;;;;;;;25.93;11.10;;;2.00;99.90;;;;;;5013248;28;20212;-48
2023/01/26 12:05:19;;;;;;;40.50;13.13;;;2.10;99.90;;;;;;5001830;28;20261;-43
2023/01/26 12:07:54;;;;;;;39.80;12.33;;;2.10;99.90;;;;;;5015880;28;20199;-48
2023/01/26 12:10:27;;;;;;;29.60;11.70;;;2.10;99.90;;;;;;5016074;28;20302;-48
2023/01/26 12:13:33;;;;;;;41.03;12.03;;;2.20;99.90;;;;;;5017007;28;20235;-50
2023/01/26 12:16:10;;;;;;;32.37;11.60;;;2.20;99.90;;;;;;5012203;28;20216;-52
2023/01/26 12:18:44;;;;;;;59.77;12.43;;;2.10;99.90;;;;;;4995292;28;20204;-50
2023/01/26 12:21:11;;;;;;;43.97;11.63;;;2.10;99.90;;;;;;5011741;28;20250;-43
2023/01/26 12:23:49;;;;;;;46.23;11.43;;;2.10;99.90;;;;;;5019526;28;20224;-46
2023/01/26 12:26:19;;;;;;;56.93;13.00;;;2.10;99.90;;;;;;5013474;28;20205;-50
2023/01/26 12:28:50;;;;;;;41.47;12.17;;;2.10;99.90;;;;;;5020187;28;20379;-49
2023/01/26 12:31:22;;;;;;;46.87;11.27;;;2.10;99.90;;;;;;5005895;28;20285;-47
2023/01/26 12:33:53;;;;;;;43.30;12.23;;;2.10;99.90;;;;;;4997523;28;20232;-51
2023/01/26 12:36:34;;;;;;;40.27;11.67;;;2.10;99.90;;;;;;5036528;28;20609;-45
2023/01/26 12:39:14;;;;;;;34.17;11.73;;;2.20;99.90;;;;;;5018697;28;20208;-56
2023/01/26 12:42:00;;;;;;;48.20;11.83;;;2.10;99.90;;;;;;5014307;28;20219;-53
2023/01/26 12:44:37;;;;;;;46.97;12.73;;;2.10;99.90;;;;;;5013110;28;20192;-42
2023/01/26 12:47:11;;;;;;;39.30;12.33;;;2.10;99.90;;;;;;5009565;28;20211;-47
2023/01/26 12:49:45;;;;;;;31.53;12.17;;;2.10;99.90;;;;;;4999499;28;20366;-47
2023/01/26 12:52:17;;;;;;;38.07;11.40;;;2.10;99.90;;;;;;5011037;28;20235;-44
2023/01/26 12:54:48;;;;;;;34.70;11.73;;;2.20;99.90;;;;;;5021878;28;20219;-47
2023/01/26 12:57:20;;;;;;;27.53;11.03;;;2.20;99.90;;;;;;5013691;28;20216;-46
2023/01/26 12:59:47;;;;;;;29.97;11.37;;;2.20;99.90;;;;;;5019437;28;20200;-53
2023/01/26 13:02:28;;;;;;;25.37;10.87;;;2.30;99.90;;;;;;5014073;28;20224;-46
2023/01/26 13:04:57;;;;;;;26.90;9.57;;;2.20;99.90;;;;;;5009843;28;20210;-50
2023/01/26 13:07:30;;;;;;;20.20;9.10;;;2.30;99.90;;;;;;5012992;28;20259;-48
2023/01/26 13:10:22;;;;;;;19.60;8.80;;;2.30;99.90;;;;;;5025221;28;20199;-46
2023/01/26 13:12:52;;;;;;;25.93;9.70;;;2.30;99.90;;;;;;5018943;28;20211;-49
2023/01/26 13:15:21;;;;;;;31.07;9.80;;;2.30;99.90;;;;;;5020989;28;20200;-48
2023/01/26 13:17:54;;;;;;;26.03;9.60;;;2.30;99.90;;;;;;5020284;28;20196;-52
2023/01/26 13:20:24;;;;;;;19.83;8.47;;;2.30;99.90;;;;;;5003639;28;20212;-49
2023/01/26 13:22:51;;;;;;;23.00;9.00;;;2.30;99.90;;;;;;5019906;28;20563;-50
2023/01/26 13:25:30;;;;;;;21.60;8.67;;;2.30;99.90;;;;;;5022211;28;20262;-45
2023/01/26 13:28:00;;;;;;;19.77;7.47;;;2.30;99.90;;;;;;5011570;28;20592;-51
2023/01/26 13:30:41;;;;;;;15.40;6.60;;;2.30;99.90;;;;;;5018182;28;20200;-48
2023/01/26 13:33:15;;;;;;;14.77;6.50;;;2.30;99.90;;;;;;5015226;28;20207;-41
2023/01/26 13:35:43;;;;;;;13.57;6.43;;;2.30;99.90;;;;;;5020994;28;20196;-50
2023/01/26 13:38:26;;;;;;;17.87;6.67;;;2.30;99.90;;;;;;4999852;28;20804;-46
2023/01/26 13:41:18;;;;;;;11.67;5.50;;;2.30;99.90;;;;;;5019087;28;20744;-42
2023/01/26 13:43:52;;;;;;;10.63;4.90;;;2.30;99.90;;;;;;5014292;28;20211;-50
2023/01/26 13:46:24;;;;;;;12.43;5.43;;;2.30;99.90;;;;;;5020652;28;20199;-50